KMRN/MRN METAR and TAF weather

Enter ICAO airport designator
Station Type Date Time Source
KMRN METAR 2021/04/18 02:15 UTC NOAA

KMRN 180215Z AUTO 36003KT 10SM OVC095 14/06 A2991 RMK AO2 T01430055


Station Type Date Time Source
KMRN Decoded METAR 2021/04/18 02:15 UTC NOAA

Morganton, Morganton-Lenoir Airport, NC, United States (KMRN) 35-49-17N 081-36-39W
Apr 17, 2021 - 10:15 PM EDT / 2021.04.18 0215 UTC
Wind: from the N (360 degrees) at 3 MPH (3 KT):0
Visibility: 10 mile(s):0
Sky conditions: overcast
Temperature: 57.7 F (14.3 C)
Dew Point: 41.9 F (5.5 C)
Relative Humidity: 55%
Pressure (altimeter): 29.91 in. Hg (1012 hPa)
ob: KMRN 180215Z AUTO 36003KT 10SM OVC095 14/06 A2991 RMK AO2 T01430055
cycle: 2

Station Type Date Time Source
KMRN TAF UTC NOAA

Error!

Example: see airport list